Time;durP1;ratioP1;P1;durP2;ratioP2;P2;SDS_P1;SDS_P2;PMS_P1;PMS_P2;Temp;Humidity;BMP_temperature;BMP_pressure;BME280_temperature;BME280_humidity;BME280_pressure;Samples;Min_cycle;Max_cycle;Signal;HPM_P1;HPM_P2
2022/04/08 00:00:22;;;;;;;15.07;5.43;;;;;;;38.22;45.49;100959.91;4750592;30;20495;-73
2022/04/08 00:02:50;;;;;;;16.97;6.10;;;;;;;37.87;45.97;100967.69;4750859;30;20521;-75
2022/04/08 00:05:16;;;;;;;25.07;5.80;;;;;;;37.99;45.69;100969.88;4750695;30;20961;-74
2022/04/08 00:07:43;;;;;;;21.97;6.07;;;;;;;37.88;46.26;100961.22;4752126;30;20424;-74
2022/04/08 00:10:10;;;;;;;15.67;5.73;;;;;;;37.85;45.98;100961.78;4751945;30;20449;-74
2022/04/08 00:12:36;;;;;;;9.10;4.47;;;;;;;38.01;45.72;100954.16;4750713;30;20428;-76
2022/04/08 00:15:03;;;;;;;15.83;6.23;;;;;;;38.11;45.76;100937.66;4750560;30;20556;-76
2022/04/08 00:17:29;;;;;;;19.57;7.40;;;;;;;38.03;45.83;100932.97;4750634;30;20439;-73
2022/04/08 00:19:55;;;;;;;10.37;5.40;;;;;;;38.09;45.83;100924.44;4751160;30;20440;-73
2022/04/08 00:22:23;;;;;;;20.23;5.70;;;;;;;38.02;45.83;100913.22;4750649;30;20448;-74
2022/04/08 00:24:50;;;;;;;19.70;6.10;;;;;;;38.11;45.40;100894.31;4735987;30;20467;-76
2022/04/08 00:27:16;;;;;;;15.27;5.97;;;;;;;38.15;45.72;100888.00;4750570;30;20429;-74
2022/04/08 00:29:42;;;;;;;12.80;4.80;;;;;;;38.12;45.58;100871.53;4750434;30;20436;-74
2022/04/08 00:32:08;;;;;;;18.37;6.00;;;;;;;37.84;45.92;100868.16;4735770;30;20507;-74
2022/04/08 00:34:34;;;;;;;9.60;5.80;;;;;;;38.01;46.33;100871.00;4751767;30;20409;-74
2022/04/08 00:37:00;;;;;;;20.10;6.63;;;;;;;37.84;46.42;100871.66;4750368;30;20436;-74
2022/04/08 00:39:26;;;;;;;13.53;6.90;;;;;;;38.09;46.44;100864.84;4750350;30;20904;-74
2022/04/08 00:41:52;;;;;;;13.07;5.50;;;;;;;38.09;46.14;100862.13;4750267;30;20499;-73
2022/04/08 00:44:18;;;;;;;19.87;6.83;;;;;;;38.12;46.17;100866.13;4751615;30;20408;-75
2022/04/08 00:46:44;;;;;;;14.80;5.93;;;;;;;37.86;46.68;100869.44;4750364;30;20418;-74
2022/04/08 00:49:11;;;;;;;14.40;6.23;;;;;;;37.89;46.25;100859.91;4750224;30;20421;-74
2022/04/08 00:51:39;;;;;;;15.43;6.40;;;;;;;38.13;46.22;100840.66;4750338;30;20487;-74
2022/04/08 00:54:06;;;;;;;15.93;5.90;;;;;;;38.03;46.56;100838.97;4750182;30;20424;-74
2022/04/08 00:56:33;;;;;;;23.10;6.10;;;;;;;38.01;46.37;100849.34;4751532;30;20425;-74
2022/04/08 00:59:00;;;;;;;27.43;6.50;;;;;;;38.20;46.22;100849.16;4750204;30;20979;-74
2022/04/08 01:01:26;;;;;;;19.43;6.80;;;;;;;38.09;46.00;100851.31;4751175;30;20472;-74
2022/04/08 01:03:52;;;;;;;17.40;5.30;;;;;;;37.98;46.11;100846.44;4750114;30;20429;-75
2022/04/08 01:06:22;;;;;;;15.43;6.60;;;;;;;38.12;46.08;100834.44;4750033;30;20951;-74
2022/04/08 01:08:51;;;;;;;13.10;6.93;;;;;;;37.88;47.01;100832.03;4750177;30;20455;-74
2022/04/08 01:11:18;;;;;;;14.57;6.20;;;;;;;38.09;46.39;100835.03;4750363;30;20803;-74
2022/04/08 01:13:44;;;;;;;12.80;5.33;;;;;;;37.88;46.61;100842.06;4750063;30;20869;-74
2022/04/08 01:16:11;;;;;;;18.20;5.20;;;;;;;38.03;46.41;100841.69;4749431;30;20431;-75
2022/04/08 01:18:37;;;;;;;22.00;6.47;;;;;;;37.95;46.88;100830.81;4750042;30;20425;-76
2022/04/08 01:21:07;;;;;;;11.73;4.60;;;;;;;37.94;47.05;100827.31;4751212;30;20461;-74
2022/04/08 01:23:34;;;;;;;9.93;5.50;;;;;;;37.92;46.67;100826.78;4735829;30;20417;-74
2022/04/08 01:26:08;;;;;;;20.00;8.50;;;;;;;37.81;46.18;100820.84;4750008;30;20791;-74
2022/04/08 01:28:35;;;;;;;23.70;7.43;;;;;;;37.84;46.38;100827.53;4750001;30;20479;-73
2022/04/08 01:31:02;;;;;;;14.50;4.77;;;;;;;37.94;46.67;100818.34;4736400;30;20448;-76
2022/04/08 01:33:28;;;;;;;15.27;4.83;;;;;;;38.02;46.26;100829.25;4753443;30;20424;-74
2022/04/08 01:35:54;;;;;;;15.90;5.23;;;;;;;37.96;46.51;100822.38;4754538;30;20472;-74
2022/04/08 01:38:20;;;;;;;12.40;6.43;;;;;;;37.89;46.50;100828.22;4753641;30;20431;-74
2022/04/08 01:40:46;;;;;;;14.40;5.93;;;;;;;37.86;46.33;100828.00;4753302;30;20468;-75
2022/04/08 01:43:12;;;;;;;18.53;4.93;;;;;;;37.65;46.73;100830.38;4753117;30;20436;-76
2022/04/08 01:45:38;;;;;;;9.00;4.40;;;;;;;37.80;46.61;100823.78;4753550;30;20817;-73
2022/04/08 01:48:04;;;;;;;16.43;6.30;;;;;;;37.89;46.53;100817.38;4753125;30;20936;-76
2022/04/08 01:50:30;;;;;;;15.57;6.10;;;;;;;37.85;46.82;100813.69;4754442;30;20393;-74
2022/04/08 01:52:56;;;;;;;16.17;6.23;;;;;;;37.91;46.38;100814.34;4753410;30;20436;-74
2022/04/08 01:55:23;;;;;;;15.83;6.40;;;;;;;37.80;46.14;100821.09;4754258;30;20763;-74
2022/04/08 01:57:49;;;;;;;13.23;5.07;;;;;;;37.87;46.10;100818.78;4753265;30;20485;-73
2022/04/08 02:00:15;;;;;;;11.03;6.00;;;;;;;37.85;46.28;100807.47;4752462;30;20492;-74
2022/04/08 02:02:41;;;;;;;10.73;5.83;;;;;;;37.78;46.47;100826.00;4752971;30;20794;-74
2022/04/08 02:05:07;;;;;;;22.30;6.20;;;;;;;37.94;46.16;100821.06;4754203;30;20416;-74
2022/04/08 02:07:34;;;;;;;21.70;5.80;;;;;;;38.01;45.92;100822.25;4752646;30;20448;-76
2022/04/08 02:10:00;;;;;;;18.23;6.77;;;;;;;37.97;46.37;100818.53;4752757;30;20413;-74
2022/04/08 02:12:26;;;;;;;14.03;6.70;;;;;;;38.07;45.63;100814.81;4752736;30;20435;-74
2022/04/08 02:14:54;;;;;;;13.50;6.10;;;;;;;38.14;45.31;100815.16;4753947;30;20455;-73
2022/04/08 02:17:20;;;;;;;23.10;6.40;;;;;;;37.84;46.13;100814.00;4752717;30;20460;-73
2022/04/08 02:19:46;;;;;;;9.63;4.50;;;;;;;38.00;45.51;100823.38;4752069;30;20460;-75
2022/04/08 02:22:12;;;;;;;12.13;6.93;;;;;;;38.18;45.39;100816.97;4752638;30;20441;-74
2022/04/08 02:24:38;;;;;;;20.63;7.43;;;;;;;38.26;45.62;100817.31;4752600;30;20429;-74
2022/04/08 02:27:06;;;;;;;14.87;5.63;;;;;;;38.17;45.57;100823.47;4752529;30;20433;-74
2022/04/08 02:29:35;;;;;;;16.37;6.40;;;;;;;38.12;45.69;100820.06;4753751;30;20764;-76
2022/04/08 02:32:01;;;;;;;21.83;5.53;;;;;;;38.15;45.75;100820.28;4752421;30;20417;-74
2022/04/08 02:34:27;;;;;;;13.10;5.43;;;;;;;38.10;46.15;100812.25;4752450;30;20516;-76
2022/04/08 02:36:53;;;;;;;10.20;5.10;;;;;;;38.00;46.03;100809.00;4752143;30;20432;-76
2022/04/08 02:39:19;;;;;;;10.30;4.50;;;;;;;38.10;45.62;100796.00;4752367;30;20429;-74
2022/04/08 02:41:45;;;;;;;12.83;5.27;;;;;;;38.10;45.53;100803.34;4752233;30;20534;-75
2022/04/08 02:44:11;;;;;;;23.20;8.17;;;;;;;38.05;45.90;100809.69;4752767;30;20401;-76
2022/04/08 02:46:38;;;;;;;16.53;5.57;;;;;;;37.96;45.89;100810.75;4752282;30;20436;-74
2022/04/08 02:49:04;;;;;;;14.17;5.80;;;;;;;37.86;46.13;100801.72;4752181;30;20437;-74
2022/04/08 02:51:30;;;;;;;12.70;5.63;;;;;;;38.04;45.44;100801.88;4737517;30;20433;-75
2022/04/08 02:53:56;;;;;;;15.43;6.70;;;;;;;38.00;45.63;100796.28;4752028;30;20817;-74
2022/04/08 02:56:22;;;;;;;17.57;7.03;;;;;;;38.12;45.71;100799.22;4752061;30;20944;-75
2022/04/08 02:58:48;;;;;;;16.83;6.43;;;;;;;37.91;45.94;100803.53;4737343;30;20449;-74
2022/04/08 03:01:18;;;;;;;12.13;6.43;;;;;;;37.99;45.62;100804.69;4752999;30;20485;-75
2022/04/08 03:03:44;;;;;;;9.07;4.67;;;;;;;37.82;45.77;100810.78;4751832;30;20551;-75
2022/04/08 03:06:10;;;;;;;10.13;4.53;;;;;;;37.84;45.52;100814.00;4751944;30;20453;-75
2022/04/08 03:08:36;;;;;;;13.20;5.27;;;;;;;37.78;45.44;100818.69;4751715;30;20453;-74
2022/04/08 03:11:02;;;;;;;10.57;5.43;;;;;;;37.78;45.83;100821.41;4751828;30;20431;-74
2022/04/08 03:13:28;;;;;;;9.10;4.73;;;;;;;37.99;45.41;100826.34;4751745;30;20553;-74
2022/04/08 03:15:54;;;;;;;17.20;6.60;;;;;;;38.13;45.03;100844.16;4751995;30;20429;-74
2022/04/08 03:18:20;;;;;;;13.40;6.07;;;;;;;38.08;45.18;100844.28;4751719;30;20464;-74
2022/04/08 03:20:47;;;;;;;10.23;5.60;;;;;;;38.20;44.87;100851.84;4751575;30;20479;-76
2022/04/08 03:23:13;;;;;;;27.40;7.70;;;;;;;38.19;45.07;100855.69;4751597;30;20804;-74
2022/04/08 03:25:39;;;;;;;20.60;7.67;;;;;;;38.29;45.01;100855.44;4751598;30;20433;-74
2022/04/08 03:28:05;;;;;;;14.80;4.97;;;;;;;38.16;45.32;100851.66;4751698;30;20965;-73
2022/04/08 03:30:32;;;;;;;20.73;6.30;;;;;;;37.98;45.82;100860.75;4751504;30;20429;-74
2022/04/08 03:32:58;;;;;;;11.80;6.13;;;;;;;37.99;45.62;100866.97;4751434;30;20467;-74
2022/04/08 03:35:24;;;;;;;20.87;7.27;;;;;;;38.04;45.61;100878.50;4751444;30;20421;-74
2022/04/08 03:37:50;;;;;;;14.50;5.00;;;;;;;37.94;45.06;100878.75;4751621;30;20433;-74
2022/04/08 03:40:16;;;;;;;10.90;5.10;;;;;;;37.56;45.75;100878.19;4751334;30;20480;-73
2022/04/08 03:42:42;;;;;;;20.23;6.47;;;;;;;37.60;45.91;100879.19;4751278;30;20521;-73
2022/04/08 03:45:09;;;;;;;14.63;5.63;;;;;;;37.88;45.72;100888.09;4751164;30;20520;-75
2022/04/08 03:47:35;;;;;;;13.97;6.13;;;;;;;37.96;45.45;100889.28;4751201;30;20429;-74
2022/04/08 03:50:01;;;;;;;14.27;6.30;;;;;;;37.91;45.82;100892.88;4751072;30;20858;-74
2022/04/08 03:52:32;;;;;;;19.30;7.60;;;;;;;37.80;45.95;100899.59;4752344;30;20417;-74
2022/04/08 03:54:59;;;;;;;12.03;7.17;;;;;;;37.91;45.67;100899.09;4751499;30;20429;-73
2022/04/08 03:57:26;;;;;;;15.00;4.87;;;;;;;38.16;45.09;100924.00;4750854;30;20804;-74
2022/04/08 03:59:52;;;;;;;20.33;9.87;;;;;;;37.37;47.13;100962.19;4736019;30;20510;-76
2022/04/08 04:02:19;;;;;;;21.83;10.30;;;;;;;36.54;47.73;101004.38;4751003;30;20571;-76
2022/04/08 04:04:45;;;;;;;20.70;9.60;;;;;;;35.39;40.87;101001.63;4750711;30;20457;-74
2022/04/08 04:07:11;;;;;;;22.27;4.47;;;;;;;34.37;43.57;101029.28;4750908;30;20428;-73
2022/04/08 04:09:37;;;;;;;8.80;3.37;;;;;;;32.49;50.05;101016.81;4750622;30;20452;-72
2022/04/08 04:12:04;;;;;;;23.30;8.00;;;;;;;31.71;53.13;101013.19;4750533;30;20425;-72
2022/04/08 04:14:30;;;;;;;16.60;6.20;;;;;;;30.47;56.14;101009.66;4736036;30;20449;-72
2022/04/08 04:16:56;;;;;;;11.27;6.20;;;;;;;29.64;59.87;101009.63;4750494;30;20444;-72
2022/04/08 04:19:22;;;;;;;19.30;7.97;;;;;;;28.97;61.85;101008.78;4750833;30;20431;-73
2022/04/08 04:21:49;;;;;;;23.50;8.07;;;;;;;28.26;64.15;100976.19;4750318;30;20526;-74
2022/04/08 04:24:15;;;;;;;23.03;10.80;;;;;;;29.62;59.59;100965.50;4750602;30;20425;-73
2022/04/08 04:26:41;;;;;;;33.43;9.30;;;;;;;29.90;58.51;100957.34;4750332;30;20437;-72
2022/04/08 04:29:07;;;;;;;28.43;10.40;;;;;;;30.23;57.14;100968.97;4735287;30;20515;-73
2022/04/08 04:31:33;;;;;;;26.70;11.50;;;;;;;30.32;56.95;100945.25;4749103;30;20417;-75
2022/04/08 04:34:00;;;;;;;25.23;11.13;;;;;;;30.54;55.77;100927.28;4749436;30;20421;-73
2022/04/08 04:36:26;;;;;;;19.17;7.60;;;;;;;30.65;55.35;100906.78;4748682;30;20421;-73
2022/04/08 04:38:52;;;;;;;23.40;12.53;;;;;;;30.48;55.21;100896.19;4733978;30;20433;-73
2022/04/08 04:41:18;;;;;;;20.70;9.17;;;;;;;30.87;54.04;100877.25;4748506;30;20448;-75
2022/04/08 04:43:44;;;;;;;28.17;10.47;;;;;;;30.77;54.60;100886.03;4749814;30;20428;-74
2022/04/08 04:46:10;;;;;;;33.93;12.13;;;;;;;31.63;52.61;100868.88;4749767;30;20436;-73
2022/04/08 04:48:36;;;;;;;14.40;8.53;;;;;;;32.11;51.46;100885.69;4748777;30;20432;-73
2022/04/08 04:51:02;;;;;;;24.57;9.80;;;;;;;32.54;50.27;100882.56;4749182;30;20417;-74
2022/04/08 04:53:28;;;;;;;22.57;8.10;;;;;;;32.43;49.59;100894.34;4749933;30;20819;-73
2022/04/08 04:55:57;;;;;;;17.67;8.77;;;;;;;32.51;50.22;100882.28;4750029;30;20449;-73
2022/04/08 04:58:23;;;;;;;13.70;8.40;;;;;;;33.04;48.66;100893.56;4750055;30;20536;-73
2022/04/08 05:00:49;;;;;;;12.53;6.53;;;;;;;33.57;47.32;100908.22;4749861;30;20491;-74
2022/04/08 05:03:15;;;;;;;15.10;9.23;;;;;;;33.84;46.09;100924.00;4750064;30;20440;-75
2022/04/08 05:05:41;;;;;;;17.50;8.33;;;;;;;33.99;45.85;100947.38;4752021;30;20408;-73
2022/04/08 05:08:08;;;;;;;12.87;7.63;;;;;;;34.22;45.61;100962.88;4753897;30;20945;-73
2022/04/08 05:10:34;;;;;;;15.20;8.30;;;;;;;34.34;45.44;100961.72;4755073;30;20416;-75
2022/04/08 05:13:00;;;;;;;14.67;7.50;;;;;;;34.50;45.05;100965.13;4753784;30;20775;-74
2022/04/08 05:15:27;;;;;;;14.27;7.10;;;;;;;34.76;44.08;100966.59;4753567;30;20452;-73
2022/04/08 05:17:53;;;;;;;13.40;7.40;;;;;;;34.57;43.78;100971.03;4753697;30;20536;-72
2022/04/08 05:20:20;;;;;;;12.30;6.93;;;;;;;33.82;45.27;100984.53;4753754;30;20487;-72
2022/04/08 05:22:46;;;;;;;14.43;7.03;;;;;;;34.04;45.37;100992.31;4754700;30;20451;-74
2022/04/08 05:25:13;;;;;;;14.83;6.97;;;;;;;34.44;44.54;101002.09;4754882;30;20513;-72
2022/04/08 05:27:43;;;;;;;12.63;7.03;;;;;;;33.81;45.92;101021.41;4753613;30;20524;-72
2022/04/08 05:30:12;;;;;;;15.33;7.87;;;;;;;33.69;46.90;101037.03;4753339;30;20484;-75
2022/04/08 05:32:39;;;;;;;16.20;9.40;;;;;;;34.06;45.85;101041.28;4754451;30;20514;-73
2022/04/08 05:35:06;;;;;;;14.83;9.27;;;;;;;33.48;47.14;101027.41;4735020;30;20452;-73
2022/04/08 05:37:37;;;;;;;16.20;7.83;;;;;;;33.02;47.80;101046.19;4733852;30;20433;-72
2022/04/08 05:40:03;;;;;;;14.10;7.73;;;;;;;33.33;47.21;101053.22;4736612;30;20454;-72
2022/04/08 05:42:29;;;;;;;19.37;7.50;;;;;;;34.06;45.91;101054.72;4736992;30;20422;-73
2022/04/08 05:44:55;;;;;;;14.63;9.13;;;;;;;34.26;45.10;101043.91;4736150;30;20426;-73
2022/04/08 05:47:21;;;;;;;20.30;6.70;;;;;;;34.26;45.17;101035.81;4735402;30;20453;-72
2022/04/08 05:49:47;;;;;;;10.63;7.03;;;;;;;34.67;44.52;101036.41;4735571;30;20440;-78
2022/04/08 05:52:13;;;;;;;12.80;7.97;;;;;;;34.73;44.38;101023.72;4750097;30;20437;-73
2022/04/08 05:54:39;;;;;;;14.77;7.60;;;;;;;34.77;44.18;101027.47;4750183;30;20961;-72
2022/04/08 05:57:06;;;;;;;16.30;8.80;;;;;;;34.87;44.58;101026.59;4735486;30;20425;-73
2022/04/08 05:59:33;;;;;;;15.70;11.50;;;;;;;34.85;43.20;101032.25;4742658;30;20464;-73
2022/04/08 06:01:59;;;;;;;21.43;9.00;;;;;;;34.59;44.62;101028.13;4753953;30;20559;-74
2022/04/08 06:04:25;;;;;;;23.77;9.27;;;;;;;33.70;46.52;101038.69;4745102;30;20432;-72
2022/04/08 06:06:51;;;;;;;15.03;9.27;;;;;;;33.69;46.42;101039.72;4750726;30;20544;-72
2022/04/08 06:09:17;;;;;;;20.80;10.97;;;;;;;34.02;46.16;101042.91;4752256;30;20417;-74
2022/04/08 06:11:44;;;;;;;12.83;9.00;;;;;;;34.13;45.91;101039.91;4754071;30;20405;-72
2022/04/08 06:14:10;;;;;;;19.93;12.30;;;;;;;34.08;46.06;101028.38;4752587;30;20921;-71
2022/04/08 06:16:36;;;;;;;14.83;10.50;;;;;;;34.02;45.96;101016.00;4753278;30;20428;-72
2022/04/08 06:19:02;;;;;;;17.07;12.20;;;;;;;33.96;46.11;101009.03;4751443;30;20417;-72
2022/04/08 06:21:28;;;;;;;19.83;11.77;;;;;;;33.80;47.01;101025.19;4752451;30;20492;-72
2022/04/08 06:23:54;;;;;;;21.83;11.90;;;;;;;34.04;46.29;101025.41;4750796;30;20446;-71
2022/04/08 06:26:20;;;;;;;18.03;11.00;;;;;;;34.23;46.25;101039.06;4751709;30;20427;-73
2022/04/08 06:28:46;;;;;;;25.20;13.20;;;;;;;34.30;46.07;101046.84;4738116;30;20452;-71
2022/04/08 06:31:12;;;;;;;26.27;14.10;;;;;;;34.85;45.12;101028.75;4752477;30;20482;-78
2022/04/08 06:33:38;;;;;;;18.93;12.20;;;;;;;35.17;44.13;101037.19;4751981;30;20457;-72
2022/04/08 06:36:05;;;;;;;17.90;10.73;;;;;;;35.14;43.76;101039.63;4750691;30;20444;-71
2022/04/08 06:38:31;;;;;;;18.90;11.27;;;;;;;34.87;44.18;101038.19;4750504;30;20532;-71
2022/04/08 06:40:57;;;;;;;18.30;12.37;;;;;;;34.79;44.45;101054.13;4751841;30;20829;-71
2022/04/08 06:43:23;;;;;;;18.00;12.10;;;;;;;34.82;44.45;101061.69;4750537;30;21294;-70
2022/04/08 06:45:49;;;;;;;28.00;15.17;;;;;;;34.81;44.06;101060.88;4750579;30;20429;-71
2022/04/08 06:48:16;;;;;;;27.97;14.40;;;;;;;34.82;44.12;101070.56;4750462;30;20992;-71
2022/04/08 06:50:42;;;;;;;20.93;13.97;;;;;;;34.93;44.10;101063.25;4752967;30;20543;-70
2022/04/08 06:53:08;;;;;;;19.00;13.87;;;;;;;35.16;43.22;101080.59;4752393;30;20451;-71
2022/04/08 06:55:34;;;;;;;18.97;13.37;;;;;;;35.12;43.29;101077.66;4752006;30;20425;-71
2022/04/08 06:58:02;;;;;;;25.67;14.33;;;;;;;35.26;42.71;101075.13;4751988;30;20425;-72
2022/04/08 07:00:28;;;;;;;24.60;14.87;;;;;;;34.95;43.32;101075.34;4751738;30;20492;-72
2022/04/08 07:02:55;;;;;;;16.27;12.43;;;;;;;34.85;43.84;101088.84;4753136;30;20509;-71
2022/04/08 07:05:21;;;;;;;17.80;14.70;;;;;;;34.76;44.52;101093.22;4753257;30;20500;-71
2022/04/08 07:07:47;;;;;;;19.20;12.50;;;;;;;34.84;43.95;101097.22;4753138;30;20409;-70
2022/04/08 07:10:14;;;;;;;18.57;11.03;;;;;;;34.95;43.33;101096.13;4751680;30;21035;-70
2022/04/08 07:12:40;;;;;;;15.20;12.90;;;;;;;34.80;44.04;101088.06;4751815;30;20428;-72
2022/04/08 07:15:07;;;;;;;17.87;13.97;;;;;;;34.92;43.01;101088.53;4751724;30;20488;-71
2022/04/08 07:17:34;;;;;;;17.30;13.43;;;;;;;35.05;43.50;101090.66;4751770;30;20444;-72
2022/04/08 07:20:01;;;;;;;20.07;12.00;;;;;;;34.99;43.35;101095.28;4751522;30;20476;-72
2022/04/08 07:22:27;;;;;;;23.87;16.07;;;;;;;34.73;43.79;101101.88;4751653;30;20429;-71
2022/04/08 07:24:54;;;;;;;20.73;13.50;;;;;;;34.90;43.23;101110.38;4751580;30;20436;-69
2022/04/08 07:27:21;;;;;;;31.73;16.17;;;;;;;34.96;43.35;101135.47;4751524;30;20449;-72
2022/04/08 07:29:48;;;;;;;20.80;14.07;;;;;;;34.81;44.23;101135.53;4751387;30;20436;-73
2022/04/08 07:32:23;;;;;;;14.43;11.30;;;;;;;34.98;43.75;101144.06;4751319;30;20544;-71
2022/04/08 07:34:53;;;;;;;21.87;13.77;;;;;;;34.90;43.56;101137.34;4737997;30;20432;-73
2022/04/08 07:37:29;;;;;;;16.70;12.37;;;;;;;34.58;44.18;101145.06;4751140;30;20453;-71
2022/04/08 07:39:56;;;;;;;25.13;15.40;;;;;;;34.42;44.73;101133.50;4751320;30;20820;-71
2022/04/08 07:42:23;;;;;;;23.50;16.57;;;;;;;34.59;44.26;101142.09;4751242;30;20560;-71
2022/04/08 07:44:49;;;;;;;21.23;13.60;;;;;;;34.70;44.11;101124.00;4730229;30;20465;-71
2022/04/08 07:47:18;;;;;;;21.63;10.60;;;;;;;34.68;44.23;101115.34;4750139;30;20809;-71
2022/04/08 07:49:44;;;;;;;24.40;13.73;;;;;;;34.65;44.24;101105.16;4750773;30;20482;-72
2022/04/08 07:52:10;;;;;;;21.93;12.63;;;;;;;34.66;43.98;101085.19;4751707;30;20806;-73
2022/04/08 07:54:36;;;;;;;18.23;11.57;;;;;;;34.72;44.03;101084.09;4750694;30;20440;-71
2022/04/08 07:57:02;;;;;;;21.00;13.57;;;;;;;34.71;44.11;101079.78;4750554;30;20520;-73
2022/04/08 07:59:28;;;;;;;25.70;12.73;;;;;;;34.97;43.73;101069.66;4750132;30;20871;-71
2022/04/08 08:01:54;;;;;;;21.83;12.70;;;;;;;35.16;43.88;101062.50;4750418;30;20460;-71
2022/04/08 08:04:21;;;;;;;22.47;14.70;;;;;;;35.24;43.72;101050.34;4750369;30;20426;-73
2022/04/08 08:06:48;;;;;;;25.63;15.27;;;;;;;35.40;42.87;101048.28;4747943;30;20956;-72
2022/04/08 08:09:14;;;;;;;29.60;16.20;;;;;;;35.53;42.50;101045.75;4750875;30;20762;-71
2022/04/08 08:11:40;;;;;;;26.63;14.17;;;;;;;35.59;42.54;101035.72;4749639;30;20437;-76
2022/04/08 08:14:06;;;;;;;24.00;13.70;;;;;;;35.60;42.42;101040.03;4742237;30;20433;-72
2022/04/08 08:16:32;;;;;;;19.07;14.03;;;;;;;35.59;42.64;101043.00;4749419;30;20435;-72
2022/04/08 08:18:59;;;;;;;28.37;15.00;;;;;;;35.58;42.55;101050.31;4749293;30;20819;-73
2022/04/08 08:21:25;;;;;;;18.50;12.40;;;;;;;35.67;42.30;101053.19;4749293;30;20496;-74
2022/04/08 08:23:51;;;;;;;26.30;11.27;;;;;;;35.79;42.12;101048.22;4749516;30;20433;-73
2022/04/08 08:26:18;;;;;;;14.67;9.27;;;;;;;35.91;41.39;101045.09;4710548;30;20462;-73
2022/04/08 08:28:44;;;;;;;19.27;10.57;;;;;;;36.08;41.18;101044.66;4749197;30;20940;-74
2022/04/08 08:31:10;;;;;;;17.33;10.13;;;;;;;36.01;41.33;101040.41;4749984;30;20524;-72
2022/04/08 08:33:36;;;;;;;19.00;9.87;;;;;;;35.98;41.43;101049.09;4750816;30;20428;-74
2022/04/08 08:36:03;;;;;;;16.50;9.13;;;;;;;36.01;41.31;101058.50;4751270;30;20457;-75
2022/04/08 08:38:29;;;;;;;13.90;8.03;;;;;;;35.99;42.03;101058.00;4749801;30;20494;-72
2022/04/08 08:40:56;;;;;;;21.10;8.83;;;;;;;36.00;40.83;101052.31;4727663;30;20472;-72
2022/04/08 08:43:22;;;;;;;14.13;7.53;;;;;;;35.96;40.86;101045.88;4749865;30;20508;-73
2022/04/08 08:45:49;;;;;;;19.33;6.87;;;;;;;35.83;41.21;101043.84;4749935;30;20799;-74
2022/04/08 08:48:16;;;;;;;13.67;7.67;;;;;;;35.74;41.78;101040.97;4750354;30;20528;-74
2022/04/08 08:50:52;;;;;;;18.97;8.70;;;;;;;35.61;42.00;101047.06;4750261;30;20845;-74
2022/04/08 08:53:20;;;;;;;15.90;8.10;;;;;;;35.72;40.78;101031.53;4736039;30;20432;-72
2022/04/08 08:55:50;;;;;;;16.80;8.90;;;;;;;35.78;41.30;101036.59;4750191;30;20436;-72
2022/04/08 08:58:16;;;;;;;16.93;9.80;;;;;;;35.69;41.71;101042.91;4735219;30;20467;-72
2022/04/08 09:00:43;;;;;;;18.47;9.67;;;;;;;35.36;42.27;101045.38;4735358;30;20493;-72
2022/04/08 09:03:09;;;;;;;14.53;9.40;;;;;;;35.18;42.77;101040.69;4721150;30;20421;-74
2022/04/08 09:05:44;;;;;;;20.77;10.20;;;;;;;35.19;43.68;101040.38;4751459;30;20453;-73
2022/04/08 09:08:11;;;;;;;16.83;8.80;;;;;;;35.39;42.92;101035.91;4735951;30;20830;-72
2022/04/08 09:10:46;;;;;;;20.00;9.63;;;;;;;35.15;43.59;101043.94;4750174;30;20468;-73
2022/04/08 09:13:16;;;;;;;21.67;9.73;;;;;;;35.14;43.40;101035.03;4751372;30;20408;-74
2022/04/08 09:15:52;;;;;;;20.00;10.97;;;;;;;34.66;44.60;101037.50;4750129;30;21014;-72
2022/04/08 09:18:18;;;;;;;19.87;11.80;;;;;;;34.78;44.63;101042.56;4735488;30;20432;-72
2022/04/08 09:20:46;;;;;;;18.00;10.80;;;;;;;34.93;44.07;101041.69;4749681;30;20473;-75
2022/04/08 09:23:15;;;;;;;15.50;10.13;;;;;;;34.89;44.20;101040.59;4749981;30;20455;-73
2022/04/08 09:25:42;;;;;;;14.70;10.70;;;;;;;34.66;44.16;101048.28;4750086;30;20825;-73
2022/04/08 09:28:12;;;;;;;19.87;10.60;;;;;;;34.46;44.94;101041.13;4750325;30;20948;-73
2022/04/08 09:30:40;;;;;;;20.03;12.93;;;;;;;34.93;44.23;101045.19;4750107;30;20889;-73
2022/04/08 09:33:16;;;;;;;14.90;8.80;;;;;;;35.02;43.44;101047.28;4749835;30;20812;-73
2022/04/08 09:35:43;;;;;;;14.53;9.80;;;;;;;35.02;43.99;101033.78;4735544;30;20428;-73
2022/04/08 09:38:09;;;;;;;26.80;9.27;;;;;;;35.25;42.79;101033.06;4750141;30;20436;-74
2022/04/08 09:40:42;;;;;;;20.73;10.43;;;;;;;35.17;43.21;101028.25;4749772;30;20465;-73
2022/04/08 09:43:08;;;;;;;13.97;9.10;;;;;;;35.37;43.12;101024.59;4749869;30;20429;-73
2022/04/08 09:45:38;;;;;;;15.87;10.47;;;;;;;35.09;43.50;101031.56;4749774;30;20886;-73
2022/04/08 09:48:06;;;;;;;17.03;9.70;;;;;;;35.16;44.16;101045.53;4749805;30;20882;-74
2022/04/08 09:50:34;;;;;;;17.97;9.80;;;;;;;34.92;44.11;101038.16;4751022;30;20425;-75
2022/04/08 09:53:02;;;;;;;14.80;8.30;;;;;;;34.88;44.52;101029.00;4752070;30;20814;-73
2022/04/08 09:55:29;;;;;;;14.37;8.33;;;;;;;35.10;44.76;101033.19;4754379;30;20828;-75
2022/04/08 09:57:57;;;;;;;11.63;7.60;;;;;;;34.94;45.52;101036.00;4752987;30;20428;-74
2022/04/08 10:00:25;;;;;;;18.00;10.50;;;;;;;35.36;44.21;101022.97;4752679;30;20496;-72
2022/04/08 10:02:55;;;;;;;22.80;9.33;;;;;;;35.64;43.75;101024.88;4752926;30;20445;-73
2022/04/08 10:05:24;;;;;;;14.53;8.80;;;;;;;35.45;44.23;101005.91;4754170;30;20781;-73
2022/04/08 10:07:53;;;;;;;11.80;7.70;;;;;;;34.86;46.20;100988.03;4752648;30;20544;-74
2022/04/08 10:10:31;;;;;;;17.30;7.20;;;;;;;35.48;45.36;100975.69;4752902;30;20498;-75
2022/04/08 10:13:07;;;;;;;17.90;8.63;;;;;;;35.35;45.14;100965.53;4752810;30;20432;-73
2022/04/08 10:15:42;;;;;;;17.63;8.83;;;;;;;35.52;45.14;100952.41;4752679;30;20453;-73
2022/04/08 10:18:09;;;;;;;16.20;5.90;;;;;;;34.93;45.71;100948.16;4752696;30;20439;-72
2022/04/08 10:20:37;;;;;;;24.47;8.83;;;;;;;35.22;44.79;100931.16;4753895;30;20567;-72
2022/04/08 10:23:11;;;;;;;14.40;7.33;;;;;;;34.39;47.02;100914.03;4753714;30;20531;-74
2022/04/08 10:25:51;;;;;;;15.70;7.70;;;;;;;35.02;46.11;100905.19;4752692;30;20559;-74
2022/04/08 10:28:17;;;;;;;18.07;9.30;;;;;;;35.12;45.50;100898.91;4752517;30;20472;-73
2022/04/08 10:30:49;;;;;;;18.63;8.10;;;;;;;34.99;45.68;100889.59;4752413;30;20445;-73
2022/04/08 10:33:24;;;;;;;19.60;9.10;;;;;;;34.47;46.97;100888.41;4752450;30;20432;-72
2022/04/08 10:35:55;;;;;;;19.20;7.97;;;;;;;34.91;47.03;100884.78;4753648;30;20432;-72
2022/04/08 10:38:22;;;;;;;14.90;7.13;;;;;;;35.09;46.52;100875.22;4752352;30;20448;-72
2022/04/08 10:40:58;;;;;;;21.47;8.10;;;;;;;35.43;45.83;100875.94;4752286;30;20488;-74
2022/04/08 10:43:26;;;;;;;15.60;6.97;;;;;;;34.88;46.79;100878.09;4753582;30;20424;-74
2022/04/08 10:45:56;;;;;;;14.63;7.40;;;;;;;35.30;46.29;100863.13;4752340;30;20429;-72
2022/04/08 10:48:30;;;;;;;13.60;7.60;;;;;;;35.34;46.29;100858.72;4752276;30;20516;-73
2022/04/08 10:51:13;;;;;;;15.57;8.83;;;;;;;35.39;46.21;100847.88;4753451;30;20401;-73
2022/04/08 10:53:42;;;;;;;24.20;8.60;;;;;;;35.73;45.82;100838.88;4752139;30;20514;-72
2022/04/08 10:56:13;;;;;;;20.93;8.77;;;;;;;35.64;45.41;100841.38;4753405;30;20409;-74
2022/04/08 10:58:49;;;;;;;17.23;10.37;;;;;;;35.80;45.12;100832.00;4751918;30;20804;-73
2022/04/08 11:01:19;;;;;;;14.43;8.97;;;;;;;35.52;45.35;100832.91;4751518;30;20492;-74
2022/04/08 11:03:55;;;;;;;20.47;10.37;;;;;;;35.24;46.01;100830.00;4751395;30;20525;-74
2022/04/08 11:06:24;;;;;;;19.10;10.30;;;;;;;35.59;44.95;100827.16;4752035;30;20425;-73
2022/04/08 11:08:51;;;;;;;16.30;7.70;;;;;;;35.80;44.54;100829.31;4743180;30;20430;-73
2022/04/08 11:11:26;;;;;;;18.63;9.60;;;;;;;35.91;44.68;100827.28;4736350;30;20437;-76
2022/04/08 11:13:57;;;;;;;15.00;7.93;;;;;;;35.74;45.09;100818.88;4734107;30;20426;-75